createdAt,value
2022-09-14T00:02:42.970Z,4.47
2022-09-14T00:05:47.855Z,2.70
2022-09-14T00:08:55.022Z,2.70
2022-09-14T00:11:59.806Z,1.98
2022-09-14T00:15:05.511Z,2.70
2022-09-14T00:18:12.352Z,5.25
2022-09-14T00:21:17.009Z,3.10
2022-09-14T00:24:22.305Z,4.57
2022-09-14T00:27:27.032Z,1.85
2022-09-14T00:30:31.840Z,1.30
2022-09-14T00:33:38.953Z,1.70
2022-09-14T00:36:48.199Z,9.25
2022-09-14T00:39:53.024Z,3.40
2022-09-14T00:42:57.751Z,0.45
2022-09-14T00:46:03.522Z,4.28
2022-09-14T00:49:16.051Z,1.10
2022-09-14T00:52:33.906Z,1.50
2022-09-14T00:55:38.741Z,1.60
2022-09-14T00:58:46.439Z,1.33
2022-09-14T01:01:52.448Z,2.08
2022-09-14T01:04:57.614Z,4.18
2022-09-14T01:08:16.360Z,2.25
2022-09-14T01:11:51.768Z,1.58
2022-09-14T01:15:02.618Z,1.57
2022-09-14T01:18:20.580Z,3.05
2022-09-14T01:21:30.713Z,3.97
2022-09-14T01:24:55.631Z,0.38
2022-09-14T01:28:05.417Z,0.70
2022-09-14T01:31:49.332Z,5.07
2022-09-14T01:34:59.701Z,8.07
2022-09-14T01:38:17.792Z,1.98
2022-09-14T01:41:26.367Z,3.72
2022-09-14T01:44:44.092Z,2.47
2022-09-14T01:48:15.601Z,0.98
2022-09-14T01:51:42.862Z,0.73
2022-09-14T01:55:07.391Z,3.38
2022-09-14T01:58:36.884Z,5.53
2022-09-14T02:01:51.752Z,1.45
2022-09-14T02:05:09.634Z,0.60
2022-09-14T02:08:14.671Z,6.07
2022-09-14T02:11:19.491Z,1.52
2022-09-14T02:14:25.032Z,1.05
2022-09-14T02:17:31.882Z,0.65
2022-09-14T02:20:49.751Z,2.25
2022-09-14T02:23:54.880Z,2.03
2022-09-14T02:27:01.053Z,2.05
2022-09-14T02:30:06.763Z,4.03
2022-09-14T02:33:29.388Z,0.38
2022-09-14T02:36:56.477Z,2.95
2022-09-14T02:40:22.420Z,1.65
2022-09-14T02:46:46.791Z,0.20
2022-09-14T02:50:20.649Z,4.63
2022-09-14T02:53:53.990Z,4.63
2022-09-14T02:57:04.083Z,0.45
2022-09-14T03:00:09.426Z,0.82
2022-09-14T03:03:16.858Z,1.25
2022-09-14T03:06:22.132Z,1.08
2022-09-14T03:12:31.369Z,2.63
2022-09-14T03:15:36.716Z,1.30
2022-09-14T03:21:46.432Z,5.07
2022-09-14T03:24:51.826Z,0.65
2022-09-14T03:31:07.735Z,1.33
2022-09-14T03:34:12.618Z,0.63
2022-09-14T03:37:17.796Z,3.65
2022-09-14T03:40:22.319Z,6.22
2022-09-14T03:43:28.555Z,5.68
2022-09-14T03:46:34.353Z,6.60
2022-09-14T03:49:39.141Z,6.13
2022-09-14T03:52:44.428Z,0.73
2022-09-14T03:58:53.833Z,9.95
2022-09-14T04:05:03.040Z,7.13
2022-09-14T04:08:07.813Z,4.03
2022-09-14T04:11:18.575Z,6.53
2022-09-14T04:14:24.901Z,0.77
2022-09-14T04:17:30.380Z,3.80
2022-09-14T04:20:35.377Z,0.57
2022-09-14T04:24:02.992Z,0.20
2022-09-14T04:27:04.731Z,0.15
2022-09-14T04:30:09.606Z,0.20
2022-09-14T04:33:14.244Z,3.25
2022-09-14T04:36:24.572Z,4.50
2022-09-14T04:39:29.224Z,0.38
2022-09-14T04:42:33.835Z,2.53
2022-09-14T04:45:38.281Z,1.98
2022-09-14T04:48:43.537Z,2.10
2022-09-14T04:51:48.113Z,0.80
2022-09-14T04:54:52.931Z,17.48
2022-09-14T04:57:57.631Z,5.32
2022-09-14T05:01:07.323Z,7.32
2022-09-14T05:04:13.494Z,5.47
2022-09-14T05:07:18.227Z,3.10
2022-09-14T05:10:22.993Z,1.10
2022-09-14T05:13:27.852Z,0.20
2022-09-14T05:16:38.464Z,0.57
2022-09-14T05:19:43.161Z,0.20
2022-09-14T05:22:51.957Z,0.80
2022-09-14T05:25:56.462Z,0.55
2022-09-14T05:29:03.536Z,5.60
2022-09-14T05:32:08.337Z,1.35
2022-09-14T05:35:13.293Z,0.40
2022-09-14T05:38:18.312Z,0.47
2022-09-14T05:41:22.929Z,2.28
2022-09-14T05:44:27.589Z,4.10
2022-09-14T05:47:37.074Z,1.52
2022-09-14T05:50:43.914Z,1.58
2022-09-14T05:53:53.881Z,0.73
2022-09-14T05:56:58.631Z,0.25
2022-09-14T06:00:03.389Z,0.10
2022-09-14T06:03:16.450Z,2.30
2022-09-14T06:06:22.132Z,2.88
2022-09-14T06:09:30.008Z,1.05
2022-09-14T06:12:37.783Z,4.40
2022-09-14T06:15:42.410Z,2.03
2022-09-14T06:18:48.442Z,0.15
2022-09-14T06:21:53.312Z,1.55
2022-09-14T06:24:57.821Z,0.40
2022-09-14T06:28:02.757Z,1.58
2022-09-14T06:31:08.512Z,0.85
2022-09-14T06:34:12.951Z,2.50
2022-09-14T06:37:17.704Z,1.42
2022-09-14T06:40:22.136Z,1.95
2022-09-14T06:43:35.319Z,2.22
2022-09-14T06:46:39.898Z,7.38
2022-09-14T06:49:44.605Z,12.48
2022-09-14T06:52:49.018Z,25.77
2022-09-14T06:55:54.185Z,1.20
2022-09-14T06:59:00.200Z,5.05
2022-09-14T07:02:04.994Z,10.02
2022-09-14T07:05:10.823Z,9.38
2022-09-14T07:08:15.601Z,2.45
2022-09-14T07:11:24.494Z,6.75
2022-09-14T07:14:32.222Z,13.00
2022-09-14T07:17:37.433Z,3.50
2022-09-14T07:20:42.240Z,4.75
2022-09-14T07:23:48.488Z,7.00
2022-09-14T07:26:53.187Z,6.13
2022-09-14T07:29:57.883Z,5.68
2022-09-14T07:33:02.588Z,5.57
2022-09-14T07:36:09.209Z,5.22
2022-09-14T07:39:16.136Z,108.30
2022-09-14T07:42:20.836Z,14.20
2022-09-14T07:45:25.583Z,6.80
2022-09-14T07:48:30.288Z,8.40
2022-09-14T07:51:37.726Z,13.63
2022-09-14T07:54:46.407Z,11.95
2022-09-14T07:57:57.580Z,10.57
2022-09-14T08:01:05.414Z,7.65
2022-09-14T08:04:10.330Z,11.40
2022-09-14T08:07:15.933Z,13.18
2022-09-14T08:10:20.819Z,24.77
2022-09-14T08:13:25.380Z,16.73
2022-09-14T08:16:31.841Z,13.87
2022-09-14T08:19:37.269Z,13.23
2022-09-14T08:22:42.148Z,9.05
2022-09-14T08:25:47.123Z,17.63
2022-09-14T08:28:53.670Z,24.40
2022-09-14T08:31:59.364Z,12.07
2022-09-14T08:35:03.956Z,33.05
2022-09-14T08:38:08.713Z,21.08
2022-09-14T08:41:21.009Z,30.27
2022-09-14T08:44:42.541Z,22.45
2022-09-14T08:47:47.391Z,20.90
2022-09-14T08:50:54.817Z,19.08
2022-09-14T08:54:03.235Z,20.73
2022-09-14T08:57:19.099Z,10.15
2022-09-14T09:00:48.208Z,9.90
2022-09-14T09:04:10.569Z,14.43
2022-09-14T09:07:21.370Z,12.27
2022-09-14T09:10:28.714Z,14.57
2022-09-14T09:13:37.992Z,16.30
2022-09-14T09:16:47.271Z,16.20
2022-09-14T09:20:01.224Z,15.85
2022-09-14T09:23:19.538Z,10.18
2022-09-14T09:26:29.706Z,16.17
2022-09-14T09:29:34.863Z,12.82
2022-09-14T09:32:48.490Z,20.92
2022-09-14T09:36:21.109Z,27.30
2022-09-14T09:39:26.997Z,18.65
2022-09-14T09:42:32.663Z,8.05
2022-09-14T09:46:07.283Z,8.85
2022-09-14T09:49:40.028Z,5.80
2022-09-14T09:53:06.023Z,19.65
2022-09-14T09:56:22.929Z,16.85
2022-09-14T09:59:37.653Z,13.30
2022-09-14T10:02:43.311Z,18.17
2022-09-14T10:06:00.449Z,25.58
2022-09-14T10:09:18.993Z,24.98
2022-09-14T10:12:24.382Z,25.08
2022-09-14T10:15:39.507Z,25.63
2022-09-14T10:18:49.147Z,22.20
2022-09-14T10:22:19.239Z,35.20
2022-09-14T10:25:28.963Z,20.80
2022-09-14T10:28:35.955Z,26.13
2022-09-14T10:31:43.155Z,21.45
2022-09-14T10:34:48.141Z,34.35
2022-09-14T10:38:09.849Z,26.63
2022-09-14T10:41:32.307Z,14.10
2022-09-14T10:45:03.248Z,18.85
2022-09-14T10:48:46.994Z,7.63
2022-09-14T10:52:11.853Z,27.50
2022-09-14T10:55:44.650Z,9.73
2022-09-14T10:59:01.133Z,8.32
2022-09-14T11:02:37.510Z,4.72
2022-09-14T11:06:10.294Z,5.63
2022-09-14T11:09:56.876Z,7.80
2022-09-14T11:13:26.208Z,6.00
2022-09-14T11:16:59.732Z,5.65
2022-09-14T11:20:39.381Z,4.90
2022-09-14T11:24:05.697Z,8.73
2022-09-14T11:27:24.589Z,5.50
2022-09-14T11:30:47.347Z,8.63
2022-09-14T11:34:16.705Z,12.48
2022-09-14T11:37:48.196Z,5.72
2022-09-14T11:41:24.471Z,7.40
2022-09-14T11:44:52.064Z,18.48
2022-09-14T11:48:40.788Z,11.82
2022-09-14T11:51:46.614Z,64.88
2022-09-14T11:54:52.649Z,102.60
2022-09-14T11:57:59.869Z,48.17
2022-09-14T12:01:33.785Z,265.75
2022-09-14T12:04:38.412Z,161.85
2022-09-14T12:08:29.935Z,116.23
2022-09-14T12:11:50.514Z,100.75
2022-09-14T12:15:35.067Z,84.75
2022-09-14T12:18:47.669Z,58.72
2022-09-14T12:21:53.877Z,41.38
2022-09-14T12:25:13.275Z,24.38
2022-09-14T12:28:36.450Z,54.25
2022-09-14T12:31:48.817Z,57.40
2022-09-14T12:35:33.162Z,61.42
2022-09-14T12:38:54.500Z,47.58
2022-09-14T12:42:02.391Z,37.13
2022-09-14T12:45:50.621Z,30.88
2022-09-14T12:48:59.617Z,31.10
2022-09-14T12:52:24.921Z,35.00
2022-09-14T12:55:35.603Z,28.58
2022-09-14T12:58:54.793Z,25.85
2022-09-14T13:02:21.273Z,32.42
2022-09-14T13:05:29.665Z,29.42
2022-09-14T13:08:34.773Z,31.55
2022-09-14T13:11:42.172Z,29.52
2022-09-14T13:15:00.122Z,28.08
2022-09-14T13:18:28.447Z,30.35
2022-09-14T13:21:33.372Z,28.27
2022-09-14T13:24:46.859Z,25.33
2022-09-14T13:27:53.444Z,23.33
2022-09-14T13:31:03.668Z,29.20
2022-09-14T13:34:08.746Z,27.60
2022-09-14T13:37:16.665Z,28.13
2022-09-14T13:40:26.721Z,26.35
2022-09-14T13:43:31.785Z,20.30
2022-09-14T13:46:38.278Z,18.10
2022-09-14T13:49:46.057Z,29.15
2022-09-14T13:53:01.903Z,19.17
2022-09-14T13:56:33.372Z,18.17
2022-09-14T13:59:38.124Z,27.85
2022-09-14T14:02:50.811Z,27.60
2022-09-14T14:05:55.846Z,30.35
2022-09-14T14:09:15.443Z,22.30
2022-09-14T14:12:30.624Z,48.17
2022-09-14T14:15:43.839Z,48.05
2022-09-14T14:18:52.907Z,45.42
2022-09-14T14:22:15.934Z,31.73
2022-09-14T14:25:21.417Z,34.63
2022-09-14T14:31:31.484Z,43.67
2022-09-14T14:34:36.183Z,45.33
2022-09-14T14:37:41.805Z,39.47
2022-09-14T14:40:48.069Z,32.22
2022-09-14T14:43:52.892Z,26.10
2022-09-14T14:46:58.293Z,13.27
2022-09-14T14:50:04.820Z,13.20
2022-09-14T14:53:10.427Z,15.32
2022-09-14T14:56:15.455Z,18.45
2022-09-14T14:59:23.802Z,18.75
2022-09-14T15:02:28.613Z,13.68
2022-09-14T15:05:33.361Z,17.70
2022-09-14T15:08:37.920Z,13.17
2022-09-14T15:11:43.097Z,8.43
2022-09-14T15:14:47.860Z,15.40
2022-09-14T15:17:53.361Z,10.27
2022-09-14T15:20:58.122Z,11.80
2022-09-14T15:24:02.754Z,11.00
2022-09-14T15:27:07.693Z,11.88
2022-09-14T15:30:13.713Z,11.73
2022-09-14T15:33:18.190Z,11.70
2022-09-14T15:36:38.419Z,9.80
2022-09-14T15:39:48.113Z,17.17
2022-09-14T15:42:54.800Z,10.10
2022-09-14T15:46:06.491Z,13.05
2022-09-14T15:49:14.754Z,13.52
2022-09-14T15:52:19.517Z,13.35
2022-09-14T15:55:24.315Z,10.20
2022-09-14T15:58:31.778Z,9.10
2022-09-14T16:01:38.043Z,14.10
2022-09-14T16:04:42.748Z,8.77
2022-09-14T16:07:47.356Z,12.45
2022-09-14T16:10:59.956Z,7.53
2022-09-14T16:14:08.928Z,6.80
2022-09-14T16:17:13.682Z,5.30
2022-09-14T16:20:18.992Z,10.37
2022-09-14T16:23:23.726Z,9.85
2022-09-14T16:26:33.221Z,13.03
2022-09-14T16:29:37.843Z,13.05
2022-09-14T16:32:42.424Z,15.73
2022-09-14T16:35:47.064Z,9.52
2022-09-14T16:38:52.030Z,7.85
2022-09-14T16:41:59.357Z,12.38
2022-09-14T16:45:04.037Z,17.17
2022-09-14T16:48:08.946Z,11.70
2022-09-14T16:51:15.807Z,9.40
2022-09-14T16:54:23.485Z,10.40
2022-09-14T16:57:30.640Z,8.15
2022-09-14T17:00:36.646Z,10.93
2022-09-14T17:03:42.557Z,9.25
2022-09-14T17:06:47.632Z,5.38
2022-09-14T17:09:52.851Z,6.32
2022-09-14T17:12:57.650Z,11.02
2022-09-14T17:16:09.875Z,11.43
2022-09-14T17:19:14.948Z,7.38
2022-09-14T17:22:19.379Z,10.75
2022-09-14T17:25:25.526Z,9.27
2022-09-14T17:28:31.050Z,9.07
2022-09-14T17:31:40.027Z,9.40
2022-09-14T17:34:44.877Z,7.45
2022-09-14T17:37:49.556Z,6.05
2022-09-14T17:40:54.820Z,6.00
2022-09-14T17:44:02.209Z,8.80
2022-09-14T17:47:07.247Z,6.25
2022-09-14T17:50:12.620Z,9.93
2022-09-14T17:53:17.763Z,8.98
2022-09-14T17:56:24.922Z,9.73
2022-09-14T17:59:29.722Z,7.88
2022-09-14T18:02:34.323Z,7.00
2022-09-14T18:05:39.074Z,6.28
2022-09-14T18:08:43.705Z,7.20
2022-09-14T18:11:49.893Z,5.05
2022-09-14T18:14:54.511Z,4.13
2022-09-14T18:17:59.509Z,5.35
2022-09-14T18:21:04.180Z,6.70
2022-09-14T18:24:09.029Z,5.60
2022-09-14T18:27:13.875Z,7.20
2022-09-14T18:30:18.548Z,2.55
2022-09-14T18:33:23.026Z,8.13
2022-09-14T18:36:30.348Z,7.85
2022-09-14T18:39:35.083Z,3.85
2022-09-14T18:42:39.675Z,3.22
2022-09-14T18:45:45.693Z,6.25
2022-09-14T18:48:57.609Z,2.65
2022-09-14T18:52:02.353Z,5.65
2022-09-14T18:55:07.544Z,4.97
2022-09-14T18:58:12.120Z,4.55
2022-09-14T19:01:17.134Z,2.55
2022-09-14T19:04:24.637Z,5.20
2022-09-14T19:07:29.383Z,4.80
2022-09-14T19:10:36.821Z,4.80
2022-09-14T19:13:42.021Z,3.42
2022-09-14T19:16:46.835Z,3.65
2022-09-14T19:19:53.271Z,4.50
2022-09-14T19:22:59.456Z,4.70
2022-09-14T19:26:09.960Z,3.17
2022-09-14T19:29:17.095Z,4.05
2022-09-14T19:32:21.935Z,3.00
2022-09-14T19:35:28.053Z,3.77
2022-09-14T19:38:32.482Z,2.20
2022-09-14T19:41:39.646Z,1.85
2022-09-14T19:44:44.090Z,2.35
2022-09-14T19:47:52.454Z,5.93
2022-09-14T19:51:04.980Z,2.92
2022-09-14T19:54:10.982Z,4.80
2022-09-14T19:57:15.656Z,4.35
2022-09-14T20:00:20.348Z,3.37
2022-09-14T20:03:25.903Z,5.28
2022-09-14T20:06:33.519Z,3.00
2022-09-14T20:09:39.321Z,4.43
2022-09-14T20:12:44.465Z,5.22
2022-09-14T20:15:49.238Z,3.88
2022-09-14T20:18:54.233Z,4.57
2022-09-14T20:21:59.134Z,5.60
2022-09-14T20:25:03.931Z,5.00
2022-09-14T20:28:11.086Z,5.00
2022-09-14T20:31:19.048Z,7.68
2022-09-14T20:34:24.129Z,1.63
2022-09-14T20:37:30.070Z,7.40
2022-09-14T20:40:34.848Z,11.65
2022-09-14T20:43:41.112Z,13.43
2022-09-14T20:46:47.863Z,5.22
2022-09-14T20:49:52.469Z,3.53
2022-09-14T20:52:57.218Z,8.05
2022-09-14T20:56:03.735Z,1.60
2022-09-14T20:59:11.572Z,3.58
2022-09-14T21:02:16.609Z,6.57
2022-09-14T21:05:21.477Z,5.00
2022-09-14T21:08:26.182Z,10.07
2022-09-14T21:11:31.909Z,7.33
2022-09-14T21:14:36.491Z,11.05
2022-09-14T21:17:41.170Z,4.00
2022-09-14T21:20:45.945Z,3.40
2022-09-14T21:23:51.386Z,7.13
2022-09-14T21:26:58.427Z,12.50
2022-09-14T21:30:03.646Z,12.82
2022-09-14T21:33:08.507Z,10.63
2022-09-14T21:36:41.953Z,16.33
2022-09-14T21:39:46.827Z,11.80
2022-09-14T21:43:16.149Z,8.23
2022-09-14T21:46:21.008Z,4.28
2022-09-14T21:49:25.660Z,15.60
2022-09-14T21:52:30.550Z,9.07
2022-09-14T21:55:42.533Z,9.10
2022-09-14T21:58:54.881Z,4.63
2022-09-14T22:01:59.442Z,6.72
2022-09-14T22:05:10.867Z,19.17
2022-09-14T22:08:16.136Z,14.40
2022-09-14T22:11:23.563Z,10.73
2022-09-14T22:14:30.264Z,8.90
2022-09-14T22:17:34.908Z,8.75
2022-09-14T22:20:39.880Z,30.25
2022-09-14T22:23:59.398Z,32.20
2022-09-14T22:27:04.930Z,18.63
2022-09-14T22:30:11.112Z,4.43
2022-09-14T22:33:15.744Z,2.88
2022-09-14T22:36:23.994Z,9.32
2022-09-14T22:39:28.698Z,9.73
2022-09-14T22:42:33.364Z,5.72
2022-09-14T22:45:37.898Z,12.03
2022-09-14T22:48:43.372Z,12.30
2022-09-14T22:51:48.560Z,8.07
2022-09-14T22:54:53.206Z,16.88
2022-09-14T22:57:57.763Z,6.88
2022-09-14T23:01:08.736Z,24.88
2022-09-14T23:04:15.194Z,10.95
2022-09-14T23:07:21.011Z,7.25
2022-09-14T23:10:25.895Z,11.20
2022-09-14T23:13:30.255Z,6.47
2022-09-14T23:16:34.941Z,1.75
2022-09-14T23:19:39.596Z,26.80
2022-09-14T23:22:44.621Z,7.43
2022-09-14T23:25:49.163Z,13.02
2022-09-14T23:28:58.184Z,11.60
2022-09-14T23:32:02.902Z,8.82
2022-09-14T23:35:08.266Z,7.40
2022-09-14T23:38:12.668Z,6.07
2022-09-14T23:41:19.190Z,4.70
2022-09-14T23:44:23.869Z,2.55
2022-09-14T23:47:28.458Z,1.90
2022-09-14T23:50:32.885Z,2.13
2022-09-14T23:53:38.656Z,10.82
2022-09-14T23:56:43.351Z,6.47
2022-09-14T23:59:48.383Z,4.47
